• Join FlightAware (Why Join?)
  • Login
  • US Flag 
05:04AM EDT


 

Airport Tracker/Info


-or-


 

Live Flight TrackerFlight Track Log ✈ AXM5246 ✈ 07-Jan-2014 ✈ WMKK / KUL - WBGB / BTU

Flight Track Log - Related Links

Times and Time Zones

All times are in EST time to prevent confusion due to time zone crossing. See the AXM5246 flight status page for this flight to view local times or setup timezone preferences in your user account.

Time Position Orientation Groundspeed Altitude Reporting Facility
EST Latitude Longitude Course Direction KTS MPH feet Rate Location/Type
06:47PM 3.0970 102.1873 68° East 354 407 14,300  Level FlightAware ADS-B (WMSA / SZB)
06:47PM 3.1158 102.2343 68° East 358 412 15,400 1,980 Climbing FlightAware ADS-B (WMSA / SZB)
06:48PM 3.1436 102.3038 68° East 369 425 16,800 1,920 Climbing FlightAware ADS-B (WMSA / SZB)
06:48PM 3.1601 102.3536 72° East 373 429 17,800 1,680 Climbing FlightAware ADS-B (WMSA / SZB)
06:49PM 3.1761 102.4305 78° East 389 448 18,900 1,560 Climbing FlightAware ADS-B (WMSA / SZB)
06:50PM 3.1871 102.4827 78° East 391 450 19,800 1,380 Climbing FlightAware ADS-B (WMSA / SZB)
06:50PM 3.2043 102.5654 78° East 406 467 20,700 1,320 Climbing FlightAware ADS-B (WMSA / SZB)
06:51PM 3.2157 102.6201 78° East 410 472 21,500 1,500 Climbing FlightAware ADS-B (WMSA / SZB)
06:52PM 3.2396 102.7342 78° East 420 483 23,000 1,440 Climbing FlightAware ADS-B (WMSA / SZB)
06:53PM 3.2571 102.8181 78° East 427 491 24,000 1,260 Climbing FlightAware ADS-B (WMSA / SZB)
06:53PM 3.2696 102.8784 78° East 432 497 24,600 1,140 Climbing FlightAware ADS-B (WMSA / SZB)
06:54PM 3.2881 102.9668 78° East 439 505 25,500 1,080 Climbing FlightAware ADS-B (WMSA / SZB)
06:54PM 3.3008 103.0279 78° East 444 511 26,000 1,140 Climbing FlightAware ADS-B (WMSA / SZB)
06:55PM 3.3189 103.1147 78° East 447 514 26,900 780 Climbing FlightAware ADS-B (WMSA / SZB)
06:56PM 3.3317 103.1766 78° East 446 513 27,000 60 Climbing FlightAware ADS-B (WMSA / SZB)
06:56PM 3.3508 103.2681 78° East 445 512 27,000  Level FlightAware ADS-B (WMSA / SZB)
06:57PM 3.3634 103.3290 78° East 442 509 27,000 120 Level FlightAware ADS-B (WMSA / SZB)
06:58PM 3.3738 103.4178 83° East 442 509 27,200 600 Climbing FlightAware ADS-B (WMSA / SZB)
06:58PM 3.3528 103.5088 103° East 446 513 27,900 840 Climbing FlightAware ADS-B (WMSA / SZB)
06:59PM 3.3367 103.5691 105° East 453 521 28,300 780 Climbing FlightAware ADS-B (WMSA / SZB)
07:01PM 3.3331 103.7675 91° East  Level Estimated
07:02PM 3.3310 103.8831 91° East  Level Estimated
07:03PM 3.3289 103.9987 91° East  Level Estimated
07:04PM 3.3268 104.1143 91° East  Level Estimated
07:05PM 3.3247 104.2299 91° East  Level Estimated
07:06PM 3.3226 104.3456 91° East  Level Estimated
07:07PM 3.3204 104.4612 91° East  Level Estimated
07:08PM 3.3182 104.5768 91° East  Level Estimated
07:09PM 3.3161 104.6924 91° East  Level Estimated
07:10PM 3.3138 104.8080 91° East  Level Estimated
07:11PM 3.3116 104.9236 91° East  Level Estimated
07:12PM 3.3094 105.0391 91° East  Level Estimated
07:13PM 3.3072 105.1547 91° East  Level Estimated
07:14PM 3.3049 105.2703 91° East  Level Estimated
07:15PM 3.3027 105.3859 91° East  Level Estimated
07:16PM 3.3004 105.5015 91° East  Level Estimated
07:17PM 3.2981 105.6171 91° East  Level Estimated
07:18PM 3.2958 105.7327 91° East  Level Estimated
07:19PM 3.2935 105.8483 91° East  Level Estimated
07:20PM 3.2912 105.9639 91° East  Level Estimated
07:21PM 3.2888 106.0795 91° East  Level Estimated
07:22PM 3.2864 106.1951 91° East  Level Estimated
07:23PM 3.2841 106.3107 91° East  Level Estimated
07:24PM 3.2817 106.4263 91° East  Level Estimated
07:25PM 3.2793 106.5418 91° East  Level Estimated
07:26PM 3.2769 106.6574 91° East  Level Estimated
07:27PM 3.2744 106.7730 91° East  Level Estimated
07:28PM 3.2720 106.8886 91° East  Level Estimated
07:29PM 3.2696 107.0042 91° East  Level Estimated
07:30PM 3.2671 107.1198 91° East  Level Estimated
07:31PM 3.2646 107.2354 91° East  Level Estimated
07:32PM 3.2621 107.3510 91° East  Level Estimated
07:33PM 3.2596 107.4666 91° East  Level Estimated
07:34PM 3.2571 107.5822 91° East  Level Estimated
07:35PM 3.2546 107.6977 91° East  Level Estimated
07:36PM 3.2520 107.8133 91° East  Level Estimated
07:37PM 3.2495 107.9289 91° East  Level Estimated
07:38PM 3.2469 108.0445 91° East  Level Estimated
07:39PM 3.2443 108.1600 91° East  Level Estimated
07:40PM 3.2417 108.2756 91° East  Level Estimated
07:41PM 3.2391 108.3912 91° East  Level Estimated
07:42PM 3.2365 108.5068 91° East  Level Estimated
07:43PM 3.2339 108.6224 91° East  Level Estimated
07:44PM 3.2312 108.7380 91° East  Level Estimated
07:45PM 3.2285 108.8535 91° East  Level Estimated
07:46PM 3.2259 108.9691 91° East  Level Estimated
07:47PM 3.2232 109.0847 91° East  Level Estimated
07:48PM 3.2205 109.2003 91° East  Level Estimated
07:49PM 3.2178 109.3158 91° East  Level Estimated
07:50PM 3.2150 109.4314 91° East  Level Estimated
07:51PM 3.2123 109.5470 91° East  Level Estimated
07:52PM 3.2095 109.6626 91° East  Level Estimated
07:53PM 3.2068 109.7781 91° East  Level Estimated
07:54PM 3.2040 109.8937 91° East  Level Estimated
07:55PM 3.2012 110.0093 91° East  Level Estimated
07:56PM 3.1984 110.1248 91° East  Level Estimated
07:57PM 3.1956 110.2404 91° East  Level Estimated
07:58PM 3.1927 110.3560 91° East  Level Estimated
07:59PM 3.1899 110.4716 91° East  Level Estimated
08:00PM 3.1870 110.5871 91° East  Level Estimated
08:01PM 3.1841 110.7027 91° East  Level Estimated
08:02PM 3.1813 110.8183 91° East  Level Estimated
08:03PM 3.1784 110.9338 91° East  Level Estimated
08:04PM 3.1755 111.0494 91° East  Level Estimated
08:05PM 3.1725 111.1650 91° East  Level Estimated
08:06PM 3.1696 111.2805 91° East  Level Estimated
08:07PM 3.1667 111.3961 91° East  Level Estimated
08:08PM 3.1637 111.5117 91° East  Level Estimated
08:09PM 3.1607 111.6272 91° East  Level Estimated
08:10PM 3.1577 111.7428 91° East  Level Estimated
08:11PM 3.1547 111.8583 91° East  Level Estimated
08:12PM 3.1517 111.9739 91° East  Level Estimated
08:13PM 3.1487 112.0895 91° East  Level Estimated
08:14PM 3.1456 112.2050 92° East  Level Estimated
08:15PM 3.1426 112.3206 92° East  Level Estimated
08:16PM 3.1395 112.4361 92° East  Level Estimated
08:17PM 3.1365 112.5517 92° East  Level Estimated
08:18PM 3.1334 112.6673 92° East  Level Estimated
08:19PM 3.1303 112.7828 92° East  Level Estimated
08:20PM 3.1272 112.8984 92° East  Level Estimated
08:21PM 3.1240 113.0139 92° East  Level Estimated
08:22PM 3.1239 113.0205 92° East  Level Estimated
08:23PM 3.1239 113.0205 90° East  Level Estimated
08:24PM 3.1239 113.0205 90° East  Level Estimated
08:25PM 3.1239 113.0205 90° East  Level Estimated
08:26PM 3.1239 113.0205 90° East  Level Estimated
08:27PM 3.1239 113.0205 90° East  Level Estimated
08:28PM 3.1239 113.0205 90° East  Level Estimated
08:29PM 3.1239 113.0205 90° East  Level Estimated
08:30PM 3.1239 113.0205 90° East  Level Estimated
08:31PM 3.1239 113.0205 90° East  Level Estimated
08:32PM 3.1239 113.0205 90° East  Level Estimated
08:33PM 3.1239 113.0205 90° East  Level Estimated
08:34PM 3.1239 113.0205 90° East  Level Estimated
08:35PM 3.1239 113.0205 90° East  Level Estimated
08:36PM 3.1239 113.0205 90° East  Level Estimated
08:37PM 3.1239 113.0205 90° East  Level Estimated
08:38PM 3.1239 113.0205 90° East  Level Estimated
08:39PM 3.1239 113.0205 90° East  Level Estimated
08:40PM 3.1239 113.0205 90° East  Level Estimated
08:41PM 3.1239 113.0205 90° East  Level Estimated